Time;durP1;ratioP1;P1;durP2;ratioP2;P2;SDS_P1;SDS_P2;PMS_P1;PMS_P2;Temp;Humidity;BMP_temperature;BMP_pressure;BME280_temperature;BME280_humidity;BME280_pressure;Samples;Min_cycle;Max_cycle;Signal;HPM_P1;HPM_P2
2022/06/08 00:00:53;;;;;;;48.20;35.17;;;;;;;14.96;100.00;100973.97;5075201;28;20343;-59
2022/06/08 00:03:24;;;;;;;48.63;35.97;;;;;;;14.93;100.00;100971.41;5074628;28;20028;-59
2022/06/08 00:05:50;;;;;;;53.70;37.70;;;;;;;14.94;100.00;100965.22;5074723;28;20028;-58
2022/06/08 00:08:15;;;;;;;47.63;36.03;;;;;;;14.89;100.00;100961.84;5074858;28;20034;-59
2022/06/08 00:10:41;;;;;;;50.05;35.85;;;;;;;14.85;100.00;100954.09;5074990;28;20024;-58
2022/06/08 00:13:07;;;;;;;44.13;33.95;;;;;;;14.83;100.00;100959.41;5074921;28;20039;-58
2022/06/08 00:15:32;;;;;;;43.08;33.13;;;;;;;14.80;100.00;100948.97;5074865;28;20040;-58
2022/06/08 00:17:58;;;;;;;44.45;34.42;;;;;;;14.78;100.00;100957.81;5074636;28;20343;-58
2022/06/08 00:20:23;;;;;;;46.75;34.22;;;;;;;14.81;100.00;100945.44;5074705;28;20078;-58
2022/06/08 00:22:49;;;;;;;51.88;36.65;;;;;;;14.84;100.00;100944.47;5074999;28;20036;-58
2022/06/08 00:25:15;;;;;;;50.28;36.78;;;;;;;14.89;100.00;100942.59;5076524;28;20374;-58
2022/06/08 00:27:41;;;;;;;49.10;35.45;;;;;;;14.89;100.00;100937.31;5078756;28;20024;-58
2022/06/08 00:30:08;;;;;;;50.15;36.22;;;;;;;14.91;100.00;100941.59;5078530;28;20029;-60
2022/06/08 00:32:34;;;;;;;47.28;36.10;;;;;;;14.92;100.00;100931.91;5078610;28;20465;-58
2022/06/08 00:35:01;;;;;;;48.53;35.38;;;;;;;14.84;100.00;100933.94;5078101;28;20044;-57
2022/06/08 00:37:27;;;;;;;47.85;35.47;;;;;;;14.79;100.00;100938.47;5078494;28;20483;-59
2022/06/08 00:39:52;;;;;;;46.88;34.38;;;;;;;14.76;100.00;100934.16;5078124;28;20059;-59
2022/06/08 00:42:18;;;;;;;48.85;34.78;;;;;;;14.72;100.00;100927.25;5078493;28;20066;-57
2022/06/08 00:44:54;;;;;;;51.25;35.08;;;;;;;14.69;100.00;100923.84;5078416;28;20354;-58
2022/06/08 00:47:24;;;;;;;49.80;34.75;;;;;;;14.59;100.00;100923.25;5078038;28;20439;-57
2022/06/08 00:49:52;;;;;;;52.55;35.95;;;;;;;14.58;100.00;100922.38;5078171;28;20039;-58
2022/06/08 00:52:18;;;;;;;48.08;35.17;;;;;;;14.57;100.00;100915.38;5078402;28;20119;-57
2022/06/08 00:54:51;;;;;;;51.13;36.05;;;;;;;14.53;100.00;100916.41;5077928;28;20052;-58
2022/06/08 00:57:24;;;;;;;48.40;35.03;;;;;;;14.49;100.00;100916.50;5078152;28;20343;-59
2022/06/08 00:59:59;;;;;;;51.70;36.15;;;;;;;14.45;100.00;100909.59;5078055;28;20111;-58
2022/06/08 01:02:25;;;;;;;49.38;34.08;;;;;;;14.47;100.00;100918.31;5078256;28;20047;-58
2022/06/08 01:04:50;;;;;;;48.33;34.05;;;;;;;14.39;100.00;100905.31;5078048;28;20032;-58
2022/06/08 01:07:19;;;;;;;50.47;35.20;;;;;;;14.37;100.00;100906.31;5077893;28;20066;-58
2022/06/08 01:09:45;;;;;;;47.53;33.83;;;;;;;14.34;100.00;100909.88;5077847;28;20036;-60
2022/06/08 01:12:16;;;;;;;47.65;32.80;;;;;;;14.37;100.00;100906.31;5077915;28;20085;-58
2022/06/08 01:14:41;;;;;;;48.83;34.25;;;;;;;14.29;100.00;100903.88;5077821;28;20089;-59
2022/06/08 01:17:09;;;;;;;45.78;31.83;;;;;;;14.26;100.00;100898.69;5077878;28;20060;-59
2022/06/08 01:19:37;;;;;;;49.58;33.70;;;;;;;14.24;100.00;100885.56;5077660;28;20470;-58
2022/06/08 01:22:05;;;;;;;45.15;32.08;;;;;;;14.22;100.00;100891.78;5077819;28;20039;-58
2022/06/08 01:24:31;;;;;;;46.58;32.72;;;;;;;14.21;100.00;100875.13;5077519;28;20040;-59
2022/06/08 01:27:05;;;;;;;49.00;32.92;;;;;;;14.21;100.00;100880.38;5077415;28;20332;-58
2022/06/08 01:29:36;;;;;;;45.67;32.17;;;;;;;14.19;100.00;100884.00;5077865;28;20033;-58
2022/06/08 01:32:02;;;;;;;48.73;33.73;;;;;;;14.12;100.00;100878.03;5077478;28;20040;-59
2022/06/08 01:34:30;;;;;;;51.67;32.55;;;;;;;14.12;100.00;100869.25;5077577;28;20032;-59
2022/06/08 01:37:17;;;;;;;50.10;32.90;;;;;;;14.11;100.00;100860.50;5077250;28;20021;-59
2022/06/08 01:40:05;;;;;;;51.20;32.70;;;;;;;14.11;100.00;100862.28;5077042;28;20516;-58
2022/06/08 01:42:39;;;;;;;47.85;32.42;;;;;;;14.13;100.00;100857.84;5077346;28;20035;-57
2022/06/08 01:45:29;;;;;;;48.10;33.00;;;;;;;14.12;100.00;100856.97;5077315;28;20046;-58
2022/06/08 01:47:59;;;;;;;45.20;30.50;;;;;;;14.11;100.00;100857.88;5077289;28;20039;-59
2022/06/08 01:50:54;;;;;;;43.75;30.02;;;;;;;14.12;100.00;100854.34;5076961;28;20056;-59
2022/06/08 01:53:48;;;;;;;44.20;29.15;;;;;;;14.13;100.00;100845.53;5066585;28;20398;-58
2022/06/08 01:56:21;;;;;;;40.05;27.35;;;;;;;14.12;100.00;100841.19;5077930;28;20422;-57
2022/06/08 01:59:12;;;;;;;39.33;26.02;;;;;;;14.12;100.00;100837.69;5076877;28;20035;-58
2022/06/08 02:01:51;;;;;;;39.33;25.38;;;;;;;14.15;100.00;100835.84;5076998;28;20041;-58
2022/06/08 02:04:33;;;;;;;38.15;25.90;;;;;;;14.19;100.00;100833.97;5076825;28;20032;-58
2022/06/08 02:07:14;;;;;;;36.83;25.40;;;;;;;14.16;100.00;100826.16;5076769;28;20021;-59
2022/06/08 02:09:43;;;;;;;33.92;23.65;;;;;;;14.14;100.00;100826.22;5076791;28;20390;-59
2022/06/08 02:12:11;;;;;;;34.25;24.52;;;;;;;14.09;100.00;100814.94;5076837;28;20339;-58
2022/06/08 02:14:44;;;;;;;34.20;24.30;;;;;;;14.10;100.00;100818.44;5076852;28;20029;-58
2022/06/08 02:17:14;;;;;;;30.73;22.38;;;;;;;14.08;100.00;100812.34;5077103;28;20025;-57
2022/06/08 02:19:46;;;;;;;30.73;22.23;;;;;;;14.05;100.00;100807.16;5076476;28;20036;-58
2022/06/08 02:22:17;;;;;;;32.60;22.15;;;;;;;14.00;100.00;100804.69;5076925;28;20052;-58
2022/06/08 02:24:57;;;;;;;33.33;21.35;;;;;;;13.99;100.00;100796.84;5076584;28;20074;-58
2022/06/08 02:27:38;;;;;;;34.63;21.48;;;;;;;13.92;100.00;100789.09;5076451;28;20043;-57
2022/06/08 02:30:07;;;;;;;30.13;20.65;;;;;;;13.92;100.00;100783.84;5075689;28;20328;-59
2022/06/08 02:35:30;;;;;;;30.70;21.20;;;;;;;13.86;100.00;100783.13;5076809;28;20055;-58
2022/06/08 02:38:03;;;;;;;28.42;20.63;;;;;;;13.81;100.00;100788.56;5076355;28;20024;-59
2022/06/08 02:40:32;;;;;;;30.65;19.85;;;;;;;13.83;100.00;100778.00;5076244;28;20029;-58
2022/06/08 02:43:08;;;;;;;29.95;19.90;;;;;;;13.82;100.00;100778.91;5076302;28;20079;-59
2022/06/08 02:45:38;;;;;;;26.88;18.65;;;;;;;13.78;100.00;100774.63;5076139;28;20024;-59
2022/06/08 02:48:09;;;;;;;25.65;18.58;;;;;;;13.73;100.00;100771.25;5075234;28;20032;-58
2022/06/08 02:50:34;;;;;;;24.88;18.17;;;;;;;13.72;100.00;100765.13;5075922;28;20032;-58
2022/06/08 02:53:28;;;;;;;27.88;19.08;;;;;;;13.71;100.00;100766.03;5076087;28;20033;-59
2022/06/08 02:56:13;;;;;;;26.45;17.75;;;;;;;13.68;100.00;100773.16;5048783;28;20041;-58
2022/06/08 02:58:46;;;;;;;24.42;17.58;;;;;;;13.69;100.00;100767.81;5076169;28;20036;-58
2022/06/08 03:01:20;;;;;;;24.85;17.92;;;;;;;13.72;100.00;100759.00;5075724;28;20035;-58
2022/06/08 03:03:50;;;;;;;26.30;17.45;;;;;;;13.71;100.00;100765.16;5075815;28;20043;-58
2022/06/08 03:06:20;;;;;;;27.55;17.92;;;;;;;13.72;100.00;100759.84;5075723;28;20038;-58
2022/06/08 03:08:55;;;;;;;22.63;16.80;;;;;;;13.73;100.00;100755.47;5075731;28;20032;-60
2022/06/08 03:11:23;;;;;;;24.77;16.98;;;;;;;13.73;100.00;100755.47;5075804;28;20071;-58
2022/06/08 03:13:52;;;;;;;24.30;15.98;;;;;;;13.73;100.00;100756.31;5075933;28;20024;-59
2022/06/08 03:16:30;;;;;;;22.88;16.00;;;;;;;13.66;100.00;100748.66;5075920;28;20086;-58
2022/06/08 03:18:56;;;;;;;22.65;15.85;;;;;;;13.69;100.00;100753.81;5075591;28;20040;-59
2022/06/08 03:21:22;;;;;;;21.17;15.75;;;;;;;13.64;100.00;100755.72;5075661;28;20033;-57
2022/06/08 03:23:49;;;;;;;20.63;15.02;;;;;;;13.69;100.00;100751.19;5075402;28;20359;-57
2022/06/08 03:26:19;;;;;;;19.63;14.70;;;;;;;13.68;100.00;100752.94;5075534;28;20032;-58
2022/06/08 03:28:44;;;;;;;20.92;14.45;;;;;;;13.65;100.00;100750.44;5075746;28;20336;-58
2022/06/08 03:31:10;;;;;;;21.15;14.38;;;;;;;13.69;100.00;100751.19;5075092;28;20034;-58
2022/06/08 03:33:35;;;;;;;20.85;14.50;;;;;;;13.71;100.00;100752.00;5075511;28;20028;-58
2022/06/08 03:36:01;;;;;;;20.92;13.73;;;;;;;13.69;100.00;100751.19;5075542;28;20032;-58
2022/06/08 03:38:27;;;;;;;18.95;13.75;;;;;;;13.67;100.00;100747.75;5075212;28;20055;-58
2022/06/08 03:40:52;;;;;;;19.23;14.15;;;;;;;13.72;100.00;100754.59;5075366;28;20063;-58
2022/06/08 03:43:18;;;;;;;21.25;14.52;;;;;;;13.77;100.00;100757.09;5075492;28;20075;-57
2022/06/08 03:45:47;;;;;;;20.00;13.73;;;;;;;13.78;100.00;100756.19;5075495;28;20032;-58
2022/06/08 03:48:13;;;;;;;17.23;13.13;;;;;;;13.79;100.00;100761.44;5075280;28;20028;-58
2022/06/08 03:50:41;;;;;;;19.50;13.35;;;;;;;13.87;100.00;100759.44;5075116;28;20036;-58
2022/06/08 03:53:11;;;;;;;17.45;12.55;;;;;;;13.97;100.00;100749.53;5075076;28;20029;-58
2022/06/08 03:55:36;;;;;;;18.95;12.88;;;;;;;14.03;100.00;100757.22;5074811;28;20051;-58
2022/06/08 03:58:04;;;;;;;16.25;12.68;;;;;;;14.08;100.00;100757.94;5075081;28;20036;-57
2022/06/08 04:00:30;;;;;;;16.15;12.60;;;;;;;14.10;100.00;100750.88;5075052;28;20032;-58
2022/06/08 04:02:55;;;;;;;16.55;12.57;;;;;;;14.12;100.00;100741.19;5074950;28;20040;-58
2022/06/08 04:05:21;;;;;;;18.10;11.90;;;;;;;14.16;100.00;100744.59;5074833;28;20111;-57
2022/06/08 04:07:46;;;;;;;16.20;11.98;;;;;;;14.19;100.00;100741.88;5074752;28;20313;-57
2022/06/08 04:10:13;;;;;;;15.13;11.43;;;;;;;14.25;100.00;100746.94;5074884;28;20434;-58
2022/06/08 04:12:38;;;;;;;16.27;11.63;;;;;;;14.34;100.00;100737.91;5074696;28;20455;-58
2022/06/08 04:15:04;;;;;;;13.98;11.43;;;;;;;14.33;100.00;100742.31;5075131;28;20037;-58
2022/06/08 04:17:29;;;;;;;14.45;10.75;;;;;;;14.37;100.00;100729.91;5075250;28;20032;-59
2022/06/08 04:19:55;;;;;;;13.40;10.18;;;;;;;14.38;100.00;100726.34;5074750;28;20043;-58
2022/06/08 04:22:22;;;;;;;12.77;10.07;;;;;;;14.43;100.00;100727.09;5075157;28;20024;-58
2022/06/08 04:24:47;;;;;;;11.57;10.38;;;;;;;14.43;100.00;100719.22;5074988;28;20499;-58
2022/06/08 04:27:14;;;;;;;13.68;10.32;;;;;;;14.44;100.00;100724.44;5070839;28;20124;-57
2022/06/08 04:29:39;;;;;;;11.43;9.45;;;;;;;14.43;100.00;100721.84;5064159;28;20060;-57
2022/06/08 04:32:09;;;;;;;12.13;9.90;;;;;;;14.45;100.00;100726.16;5073688;28;20059;-57
2022/06/08 04:34:35;;;;;;;11.93;9.10;;;;;;;14.46;100.00;100725.25;5074395;28;20032;-57
2022/06/08 04:37:00;;;;;;;13.48;9.98;;;;;;;14.43;100.00;100719.22;5074302;28;20021;-57
2022/06/08 04:39:26;;;;;;;12.98;8.98;;;;;;;14.47;100.00;100726.13;5074845;28;20077;-57
2022/06/08 04:41:51;;;;;;;11.82;9.15;;;;;;;14.48;100.00;100726.06;5074446;28;20119;-57
2022/06/08 04:44:17;;;;;;;14.32;9.82;;;;;;;14.49;100.00;100717.25;5074257;28;20033;-57
2022/06/08 04:46:42;;;;;;;13.40;9.75;;;;;;;14.47;100.00;100716.44;5074531;28;20454;-58
2022/06/08 04:49:08;;;;;;;11.07;9.45;;;;;;;14.54;100.00;100709.22;5074239;28;20343;-57
2022/06/08 04:51:35;;;;;;;12.93;9.93;;;;;;;14.59;100.00;100702.00;5070984;28;20058;-57
2022/06/08 04:54:00;;;;;;;11.05;8.43;;;;;;;14.68;100.00;100703.50;5054281;28;20036;-57
2022/06/08 04:56:26;;;;;;;10.93;8.95;;;;;;;14.75;100.00;100702.38;5057338;28;20420;-56
2022/06/08 04:58:54;;;;;;;11.90;8.80;;;;;;;14.79;100.00;100693.47;5074424;28;20086;-56
2022/06/08 05:01:20;;;;;;;11.15;8.77;;;;;;;14.81;100.00;100697.78;5074303;28;20063;-57
2022/06/08 05:03:45;;;;;;;11.68;8.43;;;;;;;14.82;100.00;100702.13;5057716;28;20073;-57
2022/06/08 05:06:10;;;;;;;10.15;7.68;;;;;;;14.80;100.00;100690.78;5054655;28;20115;-57
2022/06/08 05:08:36;;;;;;;10.25;7.75;;;;;;;14.79;100.00;100698.72;5054108;28;20094;-57
2022/06/08 05:11:05;;;;;;;12.50;7.55;;;;;;;14.80;100.00;100700.47;5056112;28;20033;-58
2022/06/08 05:13:31;;;;;;;8.55;7.65;;;;;;;14.80;100.00;100695.19;5057907;28;20029;-62
2022/06/08 05:15:56;;;;;;;8.77;7.10;;;;;;;14.84;100.00;100689.78;5057549;28;20057;-58
2022/06/08 05:18:22;;;;;;;11.38;7.35;;;;;;;14.86;100.00;100687.09;5057496;28;20032;-59
2022/06/08 05:20:48;;;;;;;12.43;7.53;;;;;;;14.87;100.00;100681.78;5057482;28;20068;-58
2022/06/08 05:23:19;;;;;;;8.82;6.90;;;;;;;14.90;100.00;100680.78;5057467;28;20119;-58
2022/06/08 05:25:46;;;;;;;12.73;7.13;;;;;;;14.95;100.00;100679.72;5057875;28;20029;-58
2022/06/08 05:28:13;;;;;;;9.45;7.05;;;;;;;15.00;100.00;100679.59;5057589;28;20072;-57
2022/06/08 05:30:40;;;;;;;7.88;6.82;;;;;;;15.04;100.00;100673.31;5057699;28;20033;-58
2022/06/08 05:33:06;;;;;;;8.73;7.18;;;;;;;15.09;100.00;100665.22;5057415;28;20045;-58
2022/06/08 05:35:32;;;;;;;7.50;6.68;;;;;;;15.08;100.00;100660.84;5057385;28;20417;-57
2022/06/08 05:37:58;;;;;;;9.60;6.85;;;;;;;15.13;100.00;100662.41;5054892;28;20036;-57
2022/06/08 05:40:25;;;;;;;8.95;6.65;;;;;;;15.14;100.00;100655.38;5056707;28;20053;-57
2022/06/08 05:42:51;;;;;;;10.77;7.03;;;;;;;15.16;100.00;100656.19;5057084;28;20147;-59
2022/06/08 05:45:21;;;;;;;8.93;6.53;;;;;;;15.21;100.00;100656.91;5056960;28;20048;-57
2022/06/08 05:47:47;;;;;;;10.10;6.45;;;;;;;15.25;100.00;100651.44;5057044;28;20036;-58
2022/06/08 05:50:13;;;;;;;9.32;6.13;;;;;;;15.28;100.00;100640.78;5056856;28;20040;-57
2022/06/08 05:52:38;;;;;;;8.38;6.47;;;;;;;15.39;100.00;100644.81;5056905;28;20028;-58
2022/06/08 05:55:04;;;;;;;7.72;5.72;;;;;;;15.43;100.00;100644.63;5056967;28;20052;-57
2022/06/08 05:57:29;;;;;;;7.35;6.13;;;;;;;15.45;100.00;100626.13;5056587;28;20036;-57
2022/06/08 05:59:55;;;;;;;8.50;6.03;;;;;;;15.53;100.00;100630.22;5056714;28;20035;-58
2022/06/08 06:02:20;;;;;;;7.90;5.78;;;;;;;15.57;100.00;100628.38;5056743;28;20025;-57
2022/06/08 06:04:45;;;;;;;11.48;6.15;;;;;;;15.57;100.00;100616.03;5056718;28;20097;-58
2022/06/08 06:07:12;;;;;;;7.97;6.13;;;;;;;15.63;100.00;100621.06;5056664;28;20137;-58
2022/06/08 06:09:39;;;;;;;9.52;5.85;;;;;;;15.65;100.00;100621.00;5056693;28;20040;-58
2022/06/08 06:12:05;;;;;;;8.88;5.97;;;;;;;15.70;100.00;100620.84;5056738;28;20029;-57
2022/06/08 06:14:31;;;;;;;8.07;5.65;;;;;;;15.70;100.00;100634.88;5056652;28;20029;-58
2022/06/08 06:16:56;;;;;;;6.68;5.32;;;;;;;15.68;100.00;100625.31;5056335;28;20040;-58
2022/06/08 06:19:22;;;;;;;6.47;4.90;;;;;;;15.73;100.00;100626.00;5056391;28;20463;-58
2022/06/08 06:21:47;;;;;;;10.73;6.03;;;;;;;15.75;100.00;100629.44;5056285;28;20111;-58
2022/06/08 06:24:12;;;;;;;9.00;5.63;;;;;;;15.77;100.00;100639.00;5055857;28;20091;-57
2022/06/08 06:26:37;;;;;;;9.20;5.80;;;;;;;15.76;100.00;100636.44;5056424;28;20053;-57
2022/06/08 06:29:03;;;;;;;7.45;5.35;;;;;;;15.79;100.00;100631.88;5056264;28;20044;-58
2022/06/08 10:26:51;;;;;;;9.32;4.20;;;;;;;16.77;100.00;100614.78;5089361;27;1222394;-57
2022/06/08 10:29:42;;;;;;;10.57;4.13;;;;;;;16.74;100.00;100610.47;5092413;28;20051;-57
2022/06/08 10:32:23;;;;;;;11.10;4.40;;;;;;;16.71;100.00;100607.97;5091464;28;20021;-56
2022/06/08 10:34:54;;;;;;;11.52;4.40;;;;;;;16.73;100.00;100611.41;5102230;28;20024;-57
2022/06/08 10:37:30;;;;;;;13.27;4.75;;;;;;;16.80;100.00;100609.34;5112843;28;20044;-57
2022/06/08 10:39:56;;;;;;;11.13;4.10;;;;;;;16.69;100.00;100604.50;5113039;28;20486;-57
2022/06/08 10:42:40;;;;;;;8.60;4.18;;;;;;;16.69;100.00;100602.72;5112321;28;20028;-58
2022/06/08 10:45:21;;;;;;;10.00;4.60;;;;;;;16.68;100.00;100605.44;5112648;28;20028;-58
2022/06/08 10:47:57;;;;;;;9.32;4.57;;;;;;;16.70;100.00;100606.25;5112490;28;20032;-58
2022/06/08 10:50:28;;;;;;;11.70;4.35;;;;;;;16.72;100.00;100598.25;5112446;28;20028;-58
2022/06/08 10:54:52;;;;;;;9.40;4.43;;;;;;;16.75;100.00;100604.25;5112537;28;20107;-58
2022/06/08 10:55:42;;;;;;;11.18;4.10;;;;;;;16.72;100.00;100606.19;5112113;28;20465;-59
2022/06/08 10:58:13;;;;;;;13.15;3.60;;;;;;;16.63;100.00;100602.97;5112247;28;20465;-58
2022/06/08 11:00:47;;;;;;;10.30;3.80;;;;;;;16.58;100.00;100601.44;5112323;28;20111;-58
2022/06/08 11:03:46;;;;;;;6.78;2.80;;;;;;;16.61;100.00;100598.69;5112287;28;20031;-59
2022/06/08 11:06:46;;;;;;;6.85;3.20;;;;;;;16.58;100.00;100593.53;5112128;28;20081;-58
2022/06/08 11:09:40;;;;;;;12.23;3.50;;;;;;;16.73;100.00;100592.03;5112084;28;20441;-57
2022/06/08 11:12:11;;;;;;;7.53;3.50;;;;;;;16.69;100.00;100586.88;5112179;28;20066;-59
2022/06/08 11:14:42;;;;;;;10.13;3.47;;;;;;;16.68;100.00;100584.31;5112241;28;20103;-58
2022/06/08 11:17:17;;;;;;;10.27;3.07;;;;;;;16.74;99.31;100588.47;5111725;28;20410;-59
2022/06/08 11:19:44;;;;;;;9.50;2.97;;;;;;;16.65;100.00;100576.50;5112022;28;20426;-58
2022/06/08 11:22:15;;;;;;;8.20;3.00;;;;;;;16.55;99.86;100581.28;5112162;28;20053;-59
2022/06/08 11:24:54;;;;;;;8.45;2.90;;;;;;;16.56;100.00;100568.94;5113915;28;20032;-59
2022/06/08 11:27:29;;;;;;;9.00;3.22;;;;;;;16.41;100.00;100573.09;5132736;28;20023;-58
2022/06/08 11:30:13;;;;;;;8.40;3.20;;;;;;;16.38;100.00;100561.78;5132417;28;20124;-57
2022/06/08 11:32:42;;;;;;;8.65;3.50;;;;;;;16.40;100.00;100562.59;5132470;28;20118;-59
2022/06/08 11:35:33;;;;;;;7.65;3.45;;;;;;;16.42;100.00;100564.25;5132226;28;20433;-57
2022/06/08 11:38:30;;;;;;;10.23;3.55;;;;;;;16.48;100.00;100563.13;5117571;28;20453;-57
2022/06/08 11:41:22;;;;;;;6.63;3.13;;;;;;;16.49;100.00;100552.47;5112586;28;20043;-57
2022/06/08 11:43:49;;;;;;;8.95;3.83;;;;;;;16.41;100.00;100559.88;5118540;28;20036;-57
2022/06/08 11:46:34;;;;;;;6.95;3.28;;;;;;;16.48;100.00;100552.53;5118352;28;20023;-58
2022/06/08 11:49:00;;;;;;;12.45;3.40;;;;;;;16.30;100.00;100540.97;5118239;28;20448;-57
2022/06/08 11:51:36;;;;;;;11.75;3.47;;;;;;;16.22;100.00;100540.44;5118368;28;20035;-58
2022/06/08 11:54:27;;;;;;;9.70;3.67;;;;;;;16.35;100.00;100539.88;5118155;28;20027;-58
2022/06/08 11:57:04;;;;;;;6.47;2.90;;;;;;;16.30;100.00;100533.91;5118047;28;20019;-57
2022/06/08 11:59:36;;;;;;;9.68;3.17;;;;;;;16.19;100.00;100538.78;5117884;28;20039;-59
2022/06/08 12:02:13;;;;;;;6.93;2.70;;;;;;;16.18;100.00;100537.06;5118070;28;20114;-57
2022/06/08 12:04:44;;;;;;;8.15;3.72;;;;;;;16.09;100.00;100534.81;5117698;28;20531;-59
2022/06/08 12:07:33;;;;;;;10.10;3.85;;;;;;;16.20;100.00;100529.94;5117710;28;20076;-57
2022/06/08 12:09:58;;;;;;;7.13;3.70;;;;;;;16.15;100.00;100524.00;5108005;28;20445;-58
2022/06/08 12:12:26;;;;;;;7.75;3.05;;;;;;;16.11;100.00;100527.66;5117902;28;20046;-57
2022/06/08 12:14:52;;;;;;;7.72;3.15;;;;;;;16.12;100.00;100518.84;5117684;28;20053;-57
2022/06/08 12:17:17;;;;;;;7.65;3.03;;;;;;;16.11;100.00;100522.41;5118539;28;20032;-58
2022/06/08 12:19:53;;;;;;;6.23;2.80;;;;;;;16.06;100.00;100519.09;5118016;28;20130;-58
2022/06/08 12:22:35;;;;;;;6.65;2.80;;;;;;;16.00;100.00;100522.84;5117894;28;20040;-57
2022/06/08 12:25:13;;;;;;;;;;;;;;;16.13;100.00;100525.84;5117948;28;20087;-60
2022/06/08 12:27:52;;;;;;;6.15;2.88;;;;;;;15.96;100.00;100513.31;5117325;28;19919;-58
2022/06/08 12:30:22;;;;;;;5.13;2.58;;;;;;;15.93;100.00;100523.19;5117506;28;20353;-58
2022/06/08 12:33:21;;;;;;;6.57;3.13;;;;;;;15.92;100.00;100516.19;5117828;28;20059;-58
2022/06/08 12:36:06;;;;;;;6.70;3.20;;;;;;;15.95;100.00;100516.88;5113090;28;20086;-58
2022/06/08 12:38:34;;;;;;;6.22;2.92;;;;;;;16.01;100.00;100511.38;5117398;28;20110;-59
2022/06/08 12:41:04;;;;;;;6.10;3.28;;;;;;;16.07;100.00;100509.41;5116164;28;20020;-57
2022/06/08 12:43:47;;;;;;;7.72;3.45;;;;;;;16.07;100.00;100504.13;5117435;28;20031;-61
2022/06/08 12:46:13;;;;;;;7.65;3.88;;;;;;;15.94;100.00;100501.97;5115634;28;20031;-60
2022/06/08 12:48:38;;;;;;;9.68;3.72;;;;;;;15.85;100.00;100494.44;5114384;28;20039;-59
2022/06/08 12:51:21;;;;;;;7.90;3.60;;;;;;;15.87;100.00;100502.31;5114876;28;20031;-60
2022/06/08 12:53:46;;;;;;;8.48;3.80;;;;;;;15.84;100.00;100489.22;5117043;28;20023;-58
2022/06/08 12:56:12;;;;;;;7.78;3.88;;;;;;;15.83;100.00;100490.16;5115127;28;20050;-58
2022/06/08 12:58:37;;;;;;;7.75;3.47;;;;;;;15.80;100.00;100482.34;5107058;28;20118;-59
2022/06/08 13:01:03;;;;;;;8.77;4.07;;;;;;;15.81;100.00;100489.34;5103840;28;20339;-59
2022/06/08 13:03:29;;;;;;;6.97;3.70;;;;;;;15.81;100.00;100491.97;5096344;28;20032;-58
2022/06/08 13:05:56;;;;;;;8.77;4.40;;;;;;;15.86;100.00;100490.03;5106449;28;20027;-59
2022/06/08 13:08:25;;;;;;;6.95;3.65;;;;;;;15.84;100.00;100491.88;5101555;28;20044;-59
2022/06/08 13:10:52;;;;;;;7.25;3.72;;;;;;;15.87;100.00;100475.91;5096508;28;20035;-58
2022/06/08 13:13:21;;;;;;;6.03;2.97;;;;;;;15.90;100.00;100481.94;5096304;28;20046;-58
2022/06/08 13:15:47;;;;;;;5.00;2.75;;;;;;;15.82;100.00;100480.50;5094863;28;20024;-60
2022/06/08 13:18:23;;;;;;;5.70;3.17;;;;;;;15.81;100.00;100487.56;5094339;28;20389;-58
2022/06/08 13:20:50;;;;;;;6.53;3.20;;;;;;;15.84;100.00;100483.94;5094187;28;20040;-57
2022/06/08 13:23:16;;;;;;;5.22;3.30;;;;;;;15.86;100.00;100484.75;5094606;28;20233;-58
2022/06/08 13:25:43;;;;;;;4.78;2.90;;;;;;;15.86;100.00;100480.34;5094195;28;20083;-57
2022/06/08 13:28:20;;;;;;;6.10;2.90;;;;;;;15.86;100.00;100484.75;5093917;28;20040;-59
2022/06/08 13:30:49;;;;;;;6.32;3.22;;;;;;;15.81;100.00;100481.44;5094564;28;20093;-59
2022/06/08 13:36:16;;;;;;;4.90;3.08;;;;;;;15.91;100.00;100485.44;5094415;28;20143;-59
2022/06/08 13:38:41;;;;;;;5.88;3.55;;;;;;;15.98;100.00;100485.09;5094075;28;20036;-58
2022/06/08 13:41:08;;;;;;;3.80;2.80;;;;;;;15.99;100.00;100485.97;5094033;28;20623;-58
2022/06/08 13:43:33;;;;;;;4.78;3.15;;;;;;;16.03;100.00;100484.91;5094077;28;20035;-59
2022/06/08 13:45:58;;;;;;;4.65;2.78;;;;;;;16.10;100.00;100488.16;5094089;28;20343;-59
2022/06/08 13:48:24;;;;;;;5.05;2.67;;;;;;;16.13;100.00;100477.47;5094027;28;20032;-59
2022/06/08 13:50:51;;;;;;;4.53;2.70;;;;;;;16.21;100.00;100489.44;5094012;28;20040;-58
2022/06/08 13:53:24;;;;;;;4.03;2.70;;;;;;;16.22;100.00;100485.88;5093931;28;20032;-58
2022/06/08 13:55:56;;;;;;;4.60;2.80;;;;;;;16.28;100.00;100477.66;5093785;28;20042;-59
2022/06/08 13:58:24;;;;;;;4.07;2.58;;;;;;;16.38;100.00;100479.94;5093527;28;20361;-54
2022/06/08 14:00:53;;;;;;;4.15;2.80;;;;;;;16.34;100.00;100485.34;5093664;28;20028;-56
2022/06/08 14:03:21;;;;;;;4.63;2.60;;;;;;;16.32;100.00;100481.03;5093696;28;20028;-56
2022/06/08 14:14:08;;;;;;;3.20;2.80;;;;;;;16.41;100.00;100479.78;5092072;28;20059;-58
2022/06/08 14:16:44;;;;;;;3.88;3.50;;;;;;;16.31;100.00;100477.53;5093257;28;20353;-57
2022/06/08 14:19:38;;;;;;;5.25;3.33;;;;;;;16.26;100.00;100476.91;5093123;28;20430;-58
2022/06/08 14:22:06;;;;;;;3.90;3.50;;;;;;;16.28;100.00;100471.53;5098448;28;20028;-59
2022/06/08 14:24:36;;;;;;;5.38;3.63;;;;;;;16.29;100.00;100474.09;5112451;28;20112;-59
2022/06/08 14:27:03;;;;;;;4.53;3.67;;;;;;;16.25;100.00;100467.25;5112981;28;20098;-58
2022/06/08 14:29:28;;;;;;;4.30;3.90;;;;;;;16.33;100.00;100475.69;5113327;28;20034;-58
2022/06/08 14:31:58;;;;;;;5.28;4.78;;;;;;;16.33;100.00;100475.69;5113768;28;20040;-59
2022/06/08 14:34:32;;;;;;;5.75;5.25;;;;;;;16.33;100.00;100475.69;5114942;28;20035;-59
2022/06/08 14:37:00;;;;;;;6.20;5.60;;;;;;;16.33;100.00;100475.69;5115185;28;20027;-58
2022/06/08 14:39:30;;;;;;;7.70;6.10;;;;;;;16.29;100.00;100467.97;5115220;28;20024;-58
2022/06/08 14:41:55;;;;;;;6.60;6.00;;;;;;;16.35;100.00;100481.78;5115210;28;20076;-57
2022/06/08 14:44:22;;;;;;;6.75;6.15;;;;;;;16.35;100.00;100478.28;5114815;28;20043;-58
2022/06/08 14:46:54;;;;;;;7.55;6.75;;;;;;;16.35;100.00;100479.13;5115064;28;20031;-59
2022/06/08 14:49:23;;;;;;;;;;;;;;;16.48;100.00;100478.59;5115811;28;20450;-57
2022/06/08 14:51:50;;;;;;;7.95;7.13;;;;;;;16.40;100.00;100478.94;5115331;28;20011;-58
2022/06/08 14:54:19;;;;;;;9.48;8.15;;;;;;;16.36;100.00;100480.00;5115504;28;20023;-58
2022/06/08 14:56:46;;;;;;;8.70;7.82;;;;;;;16.29;100.00;100489.09;5114937;28;20436;-58
2022/06/08 14:59:21;;;;;;;9.13;8.20;;;;;;;16.23;100.00;100489.38;5115303;28;20027;-59
2022/06/08 15:01:51;;;;;;;9.18;8.35;;;;;;;16.21;100.00;100486.78;5115298;28;20128;-58
2022/06/08 15:04:20;;;;;;;9.73;8.82;;;;;;;16.23;100.00;100492.88;5114781;28;20071;-56
2022/06/08 15:06:48;;;;;;;9.93;9.02;;;;;;;16.19;100.00;100486.00;5115036;28;20050;-57
2022/06/08 15:09:15;;;;;;;9.82;8.93;;;;;;;16.17;100.00;100486.97;5115033;28;20039;-56
2022/06/08 15:11:58;;;;;;;10.52;9.52;;;;;;;16.14;100.00;100493.22;5116138;28;20357;-57
2022/06/08 15:14:40;;;;;;;10.98;9.88;;;;;;;16.20;100.00;100489.50;5118724;28;20032;-56
2022/06/08 15:17:16;;;;;;;11.05;9.98;;;;;;;16.22;100.00;100493.78;5118761;28;20043;-57
2022/06/08 15:19:46;;;;;;;10.35;9.13;;;;;;;16.10;100.00;100494.31;5119336;28;20060;-57
2022/06/08 15:22:15;;;;;;;11.75;9.55;;;;;;;15.98;100.00;100494.78;5118394;28;20024;-57
2022/06/08 15:24:41;;;;;;;10.27;9.10;;;;;;;15.99;100.00;100500.00;5118294;28;20032;-59
2022/06/08 15:27:15;;;;;;;9.63;8.68;;;;;;;15.98;100.00;100495.66;5118558;28;20402;-58
2022/06/08 15:29:40;;;;;;;10.15;9.02;;;;;;;15.91;100.00;100502.13;5118897;28;20046;-58
2022/06/08 15:32:06;;;;;;;9.43;8.40;;;;;;;15.86;100.00;100490.03;5118548;28;20027;-58
2022/06/08 15:34:32;;;;;;;10.98;8.18;;;;;;;15.90;100.00;100491.63;5118619;28;20041;-57